Time;durP1;ratioP1;P1;durP2;ratioP2;P2;SDS_P1;SDS_P2;PMS_P1;PMS_P2;Temp;Humidity;BMP_temperature;BMP_pressure;BME280_temperature;BME280_humidity;BME280_pressure;Samples;Min_cycle;Max_cycle;Signal;HPM_P1;HPM_P2
2023/04/12 00:01:23;;;;;;;6.00;1.88;;;;;;;7.83;100.00;100423.03;4970390;28;20015;-71
2023/04/12 00:03:49;;;;;;;3.70;1.10;;;;;;;7.81;100.00;100420.41;4969434;28;20106;-71
2023/04/12 00:06:16;;;;;;;5.95;1.33;;;;;;;7.74;100.00;100402.94;4969345;28;20017;-71
2023/04/12 00:08:45;;;;;;;3.10;0.98;;;;;;;7.76;100.00;100394.47;4969139;28;20027;-71
2023/04/12 00:11:11;;;;;;;6.60;1.35;;;;;;;7.74;100.00;100392.63;4969843;28;20459;-71
2023/04/12 00:13:36;;;;;;;5.35;1.75;;;;;;;7.72;100.00;100378.81;4969813;28;20305;-71
2023/04/12 00:16:01;;;;;;;3.10;1.10;;;;;;;7.73;100.00;100375.41;4968032;28;20022;-71
2023/04/12 00:18:26;;;;;;;6.10;1.50;;;;;;;7.68;100.00;100363.22;4967765;28;20255;-70
2023/04/12 00:20:54;;;;;;;5.03;1.20;;;;;;;7.66;100.00;100367.44;4984981;28;20018;-71
2023/04/12 00:23:19;;;;;;;3.85;1.10;;;;;;;7.64;100.00;100366.53;4988311;28;20359;-71
2023/04/12 00:25:45;;;;;;;4.03;1.23;;;;;;;7.60;100.00;100358.59;4987684;28;20033;-71
2023/04/12 00:28:10;;;;;;;5.88;1.58;;;;;;;7.59;100.00;100338.81;4987872;28;20768;-71
2023/04/12 00:30:35;;;;;;;2.45;1.05;;;;;;;7.59;100.00;100336.22;4987212;28;21084;-71
2023/04/12 00:33:01;;;;;;;4.80;1.30;;;;;;;7.59;100.00;100329.34;4988070;28;20033;-71
2023/04/12 00:35:26;;;;;;;5.28;1.30;;;;;;;7.61;100.00;100319.97;4986867;28;20022;-71
2023/04/12 00:37:51;;;;;;;5.68;1.50;;;;;;;7.57;100.00;100320.72;4986700;28;20026;-71
2023/04/12 00:40:17;;;;;;;4.28;1.38;;;;;;;7.54;100.00;100308.56;4986565;28;20033;-71
2023/04/12 00:42:42;;;;;;;4.22;1.02;;;;;;;7.50;100.00;100298.09;4987749;28;20026;-71
2023/04/12 00:45:08;;;;;;;4.88;1.45;;;;;;;7.44;100.00;100286.75;4987160;28;20431;-71
2023/04/12 00:47:38;;;;;;;5.80;1.38;;;;;;;7.40;100.00;100274.56;4987384;28;20061;-71
2023/04/12 00:50:04;;;;;;;5.13;1.45;;;;;;;7.39;100.00;100283.13;4986768;28;20030;-71
2023/04/12 00:52:33;;;;;;;6.80;1.10;;;;;;;7.41;100.00;100278.03;4987558;28;20034;-71
2023/04/12 00:55:00;;;;;;;3.33;1.10;;;;;;;7.42;100.00;100277.19;4984013;28;20178;-71
2023/04/12 00:57:26;;;;;;;3.90;1.30;;;;;;;7.42;100.00;100269.44;4968685;28;20607;-71
2023/04/12 00:59:51;;;;;;;5.88;1.50;;;;;;;7.39;100.00;100251.31;4984342;28;20405;-71
2023/04/12 01:02:17;;;;;;;5.40;1.23;;;;;;;7.38;100.00;100250.41;4987227;28;20122;-71
2023/04/12 01:04:42;;;;;;;5.47;1.40;;;;;;;7.34;100.00;100227.91;4987448;28;20031;-71
2023/04/12 01:07:43;;;;;;;5.07;1.63;;;;;;;7.30;100.00;100231.25;4988254;28;20085;-71
2023/04/12 01:10:28;;;;;;;5.88;1.98;;;;;;;7.29;100.00;100214.00;4963681;28;20133;-72
2023/04/12 01:13:14;;;;;;;4.60;1.25;;;;;;;7.28;100.00;100207.09;4987578;28;20026;-72
2023/04/12 01:15:53;;;;;;;3.83;1.45;;;;;;;7.24;100.00;100206.13;4985918;28;20048;-71
2023/04/12 01:18:24;;;;;;;4.38;2.15;;;;;;;7.25;100.00;100194.97;4977054;28;20026;-71
2023/04/12 01:21:02;;;;;;;5.78;1.73;;;;;;;7.27;100.00;100182.13;4987127;28;20459;-71
2023/04/12 01:24:00;;;;;;;6.40;1.80;;;;;;;7.21;100.00;100175.09;4979994;28;20037;-71
2023/04/12 01:26:44;;;;;;;2.95;1.60;;;;;;;7.18;100.00;100165.53;4970981;28;20061;-71
2023/04/12 01:29:18;;;;;;;6.43;1.98;;;;;;;7.15;100.00;100151.66;4972366;28;20023;-71
2023/04/12 01:31:53;;;;;;;5.03;1.60;;;;;;;7.15;100.00;100157.72;4971722;28;20070;-71
2023/04/12 01:34:20;;;;;;;4.82;1.77;;;;;;;7.12;100.00;100149.00;4967718;28;20022;-71
2023/04/12 01:36:46;;;;;;;4.50;1.50;;;;;;;7.11;100.00;100139.50;4971066;28;20039;-71
2023/04/12 01:39:12;;;;;;;5.15;1.42;;;;;;;7.10;100.00;100130.91;4991680;28;20475;-71
2023/04/12 01:41:40;;;;;;;8.65;1.67;;;;;;;7.06;100.00;100126.47;4990075;28;20037;-71
2023/04/12 01:44:06;;;;;;;5.63;1.75;;;;;;;7.06;100.00;100118.72;4978224;28;20463;-71
2023/04/12 01:46:31;;;;;;;6.28;1.95;;;;;;;7.05;100.00;100111.84;4990932;28;20030;-71
2023/04/12 01:48:57;;;;;;;7.82;1.80;;;;;;;7.04;100.00;100110.06;4990788;28;20125;-71
2023/04/12 01:51:57;;;;;;;4.68;1.60;;;;;;;7.00;100.00;100098.78;4990497;28;20471;-71
2023/04/12 01:54:26;;;;;;;4.20;1.65;;;;;;;7.00;100.00;100092.75;4990877;28;20045;-71
2023/04/12 01:56:56;;;;;;;4.13;2.05;;;;;;;7.00;100.00;100098.78;4984145;28;20522;-71
2023/04/12 01:59:25;;;;;;;2.75;1.60;;;;;;;7.03;100.00;100092.88;4971559;28;20475;-72
2023/04/12 02:01:51;;;;;;;2.55;1.38;;;;;;;7.00;100.00;100078.16;4978568;28;20045;-72
2023/04/12 02:04:18;;;;;;;3.40;1.67;;;;;;;7.01;100.00;100061.00;4977053;28;20174;-71
2023/04/12 02:06:45;;;;;;;7.30;2.25;;;;;;;7.03;100.00;100051.66;4971773;28;20194;-71
2023/04/12 02:09:10;;;;;;;5.78;1.85;;;;;;;7.02;100.00;100049.88;4971879;28;20468;-72
2023/04/12 02:11:36;;;;;;;6.00;1.40;;;;;;;7.01;100.00;100043.88;4971583;28;20076;-71
2023/04/12 02:14:02;;;;;;;2.78;1.33;;;;;;;7.01;100.00;100049.03;4971697;28;20054;-71
2023/04/12 02:16:31;;;;;;;4.72;1.92;;;;;;;7.03;100.00;100028.47;4981704;28;20073;-72
2023/04/12 02:18:57;;;;;;;3.60;1.45;;;;;;;7.03;100.00;100026.75;4984153;28;20379;-71
2023/04/12 02:21:23;;;;;;;3.33;1.23;;;;;;;7.04;100.00;100015.63;4981666;28;20070;-71
2023/04/12 02:23:49;;;;;;;4.32;1.60;;;;;;;7.06;100.00;100008.81;4970168;28;20444;-71
2023/04/12 02:26:14;;;;;;;3.05;1.77;;;;;;;7.03;100.00;100001.00;4970788;28;20069;-71
2023/04/12 02:28:39;;;;;;;5.32;1.52;;;;;;;7.05;100.00;99998.47;4970854;28;20030;-71
2023/04/12 02:31:05;;;;;;;6.75;1.58;;;;;;;7.05;100.00;99990.75;4988960;28;20034;-71
2023/04/12 02:33:31;;;;;;;5.10;1.10;;;;;;;7.06;100.00;99987.31;4987571;28;20435;-71
2023/04/12 02:35:56;;;;;;;2.72;1.20;;;;;;;7.08;100.00;99983.09;4977182;28;20038;-71
2023/04/12 02:38:22;;;;;;;4.55;1.67;;;;;;;7.05;100.00;99978.72;4988922;28;20105;-71
2023/04/12 02:40:47;;;;;;;3.80;1.50;;;;;;;7.05;100.00;99962.41;4988488;28;20035;-71
2023/04/12 02:43:12;;;;;;;5.50;1.33;;;;;;;7.06;100.00;99959.88;4987726;28;20030;-73
2023/04/12 02:45:38;;;;;;;2.35;1.30;;;;;;;7.05;100.00;99944.38;4988545;28;20034;-71
2023/04/12 02:48:04;;;;;;;3.03;1.17;;;;;;;7.04;100.00;99934.88;4986739;28;20071;-71
2023/04/12 02:50:29;;;;;;;2.88;1.02;;;;;;;7.04;100.00;99929.72;4988711;28;20026;-71
2023/04/12 02:52:55;;;;;;;4.93;1.48;;;;;;;7.02;100.00;99936.53;4986852;28;20077;-71
2023/04/12 02:55:20;;;;;;;3.33;1.45;;;;;;;7.01;100.00;99934.78;4986299;28;20014;-72
2023/04/12 02:57:47;;;;;;;1.60;1.10;;;;;;;7.03;100.00;99927.97;4985176;28;20463;-71
2023/04/12 03:00:16;;;;;;;5.30;1.27;;;;;;;7.01;100.00;99909.91;4987534;28;20022;-71
2023/04/12 03:02:42;;;;;;;3.58;1.23;;;;;;;6.99;100.00;99895.22;4985871;28;20061;-72
2023/04/12 03:05:08;;;;;;;2.85;1.38;;;;;;;6.99;100.00;99890.06;4986926;28;20064;-71
2023/04/12 03:07:34;;;;;;;3.13;1.23;;;;;;;6.94;100.00;99882.19;4984487;28;20382;-71
2023/04/12 03:10:00;;;;;;;5.10;1.27;;;;;;;6.93;100.00;99871.00;4986775;28;20026;-71
2023/04/12 03:12:25;;;;;;;3.70;1.42;;;;;;;6.91;100.00;99872.66;4985301;28;20077;-71
2023/04/12 03:14:50;;;;;;;3.92;1.08;;;;;;;6.90;100.00;99865.78;4949548;28;1112197;-71
2023/04/12 03:17:16;;;;;;;5.65;1.42;;;;;;;6.87;100.00;99860.53;4974773;28;20031;-71
2023/04/12 03:19:41;;;;;;;3.90;1.27;;;;;;;6.85;100.00;99852.72;4976739;28;20081;-71
2023/04/12 03:22:06;;;;;;;2.53;1.15;;;;;;;6.87;100.00;99864.81;4976242;28;20033;-71
2023/04/12 03:24:33;;;;;;;3.80;1.30;;;;;;;6.84;100.00;99855.25;4977015;28;20057;-71
2023/04/12 03:27:01;;;;;;;4.03;1.10;;;;;;;6.86;100.00;99851.03;4989487;28;20548;-71
2023/04/12 03:29:26;;;;;;;2.45;1.02;;;;;;;6.85;100.00;99841.56;4975834;28;20118;-71
2023/04/12 03:31:51;;;;;;;2.67;1.00;;;;;;;6.83;100.00;99835.50;4975989;28;20257;-71
2023/04/12 03:34:16;;;;;;;4.15;0.90;;;;;;;6.80;100.00;99832.84;4982363;28;20030;-71
2023/04/12 03:36:42;;;;;;;1.67;0.88;;;;;;;6.83;100.00;99832.91;4983121;28;20407;-70
2023/04/12 03:39:07;;;;;;;3.58;1.15;;;;;;;6.83;100.00;99823.50;4989239;28;20010;-71
2023/04/12 03:41:33;;;;;;;2.20;1.17;;;;;;;6.83;100.00;99822.63;4988678;28;20084;-71
2023/04/12 03:43:58;;;;;;;3.72;1.35;;;;;;;6.80;100.00;99823.38;4981451;28;20069;-71
2023/04/12 03:46:23;;;;;;;5.78;1.40;;;;;;;6.79;100.00;99807.88;4969742;28;20034;-71
2023/04/12 03:48:50;;;;;;;2.25;0.85;;;;;;;6.81;100.00;99821.69;4988988;28;20050;-71
2023/04/12 03:51:16;;;;;;;2.65;1.00;;;;;;;6.80;100.00;99814.81;4988452;28;20399;-71
2023/04/12 03:53:41;;;;;;;2.90;1.25;;;;;;;6.79;100.00;99803.63;4969352;28;20031;-71
2023/04/12 03:56:07;;;;;;;4.47;1.17;;;;;;;6.81;100.00;99806.25;4969742;28;20442;-71
2023/04/12 03:58:32;;;;;;;2.25;1.00;;;;;;;6.78;100.00;99785.56;4969702;28;20109;-71
2023/04/12 04:01:00;;;;;;;2.40;1.23;;;;;;;6.78;100.00;99786.41;4982538;28;20165;-71
2023/04/12 04:03:28;;;;;;;4.68;1.08;;;;;;;6.77;100.00;99794.09;4981328;28;20023;-71
2023/04/12 04:05:54;;;;;;;3.20;1.05;;;;;;;6.79;100.00;99790.75;4982734;28;20076;-71
2023/04/12 04:08:19;;;;;;;2.08;1.35;;;;;;;6.77;100.00;99771.78;4969092;28;20391;-71
2023/04/12 04:10:45;;;;;;;3.47;1.20;;;;;;;6.78;100.00;99776.09;4970262;28;20098;-72
2023/04/12 04:13:10;;;;;;;5.97;1.52;;;;;;;6.78;100.00;99763.22;4968686;28;20081;-71
2023/04/12 04:15:35;;;;;;;2.83;1.00;;;;;;;6.76;100.00;99764.03;4970201;28;20042;-71
2023/04/12 04:18:01;;;;;;;2.88;1.35;;;;;;;6.75;100.00;99762.25;4971174;28;20022;-71
2023/04/12 04:20:26;;;;;;;4.40;1.50;;;;;;;6.72;100.00;99753.66;4982896;28;20034;-70
2023/04/12 04:22:52;;;;;;;4.03;1.40;;;;;;;6.69;100.00;99737.22;4988690;28;20023;-70
2023/04/12 04:25:18;;;;;;;3.00;1.20;;;;;;;6.69;100.00;99748.38;4988502;28;20038;-70
2023/04/12 04:27:44;;;;;;;2.75;1.73;;;;;;;6.68;100.00;99728.63;4988433;28;20076;-71
2023/04/12 04:30:11;;;;;;;2.42;1.27;;;;;;;6.69;100.00;99735.50;4988169;28;20403;-71
2023/04/12 04:32:37;;;;;;;3.38;1.30;;;;;;;6.70;100.00;99739.84;4987777;28;20029;-71
2023/04/12 04:35:03;;;;;;;5.85;1.48;;;;;;;6.71;100.00;99740.72;4986810;28;20022;-71
2023/04/12 04:37:34;;;;;;;4.78;1.60;;;;;;;6.71;100.00;99731.28;4986291;28;20029;-71
2023/04/12 04:40:00;;;;;;;2.63;1.45;;;;;;;6.68;100.00;99725.16;4986906;28;20034;-71
2023/04/12 04:42:28;;;;;;;2.33;1.50;;;;;;;6.68;100.00;99727.75;4987786;28;20018;-71
2023/04/12 04:45:02;;;;;;;3.53;1.15;;;;;;;6.68;100.00;99714.88;4986913;28;20022;-70
2023/04/12 04:47:29;;;;;;;4.85;1.40;;;;;;;6.67;100.00;99714.00;4969988;28;20518;-71
2023/04/12 04:49:57;;;;;;;2.45;1.42;;;;;;;6.68;100.00;99714.88;4974443;28;20058;-72
2023/04/12 04:52:23;;;;;;;2.97;1.40;;;;;;;6.69;100.00;99712.34;4972072;28;20097;-71
2023/04/12 04:54:48;;;;;;;3.88;1.38;;;;;;;6.70;100.00;99714.09;4972226;28;20034;-72
2023/04/12 04:57:14;;;;;;;2.72;1.30;;;;;;;6.70;100.00;99703.78;4971444;28;20050;-73
2023/04/12 04:59:40;;;;;;;1.88;1.27;;;;;;;6.70;100.00;99708.06;4973076;28;20386;-70
2023/04/12 05:02:05;;;;;;;3.42;1.50;;;;;;;6.70;100.00;99702.91;4969653;28;20023;-70
2023/04/12 05:04:30;;;;;;;3.78;1.30;;;;;;;6.70;100.00;99705.50;4971541;28;20022;-70
2023/04/12 05:06:55;;;;;;;3.85;1.63;;;;;;;6.69;100.00;99699.47;4970585;28;20480;-70
2023/04/12 05:09:21;;;;;;;5.35;1.55;;;;;;;6.72;100.00;99696.13;4969886;28;20107;-72
2023/04/12 05:11:46;;;;;;;4.38;1.52;;;;;;;6.76;100.00;99704.81;4967273;28;20046;-72
2023/04/12 05:14:11;;;;;;;3.55;1.65;;;;;;;6.76;100.00;99699.66;4967759;28;20130;-73
2023/04/12 05:16:36;;;;;;;3.13;1.58;;;;;;;6.77;100.00;99699.69;4967374;28;20038;-72
2023/04/12 05:19:02;;;;;;;3.83;1.85;;;;;;;6.76;100.00;99694.50;4982942;28;20560;-70
2023/04/12 05:21:28;;;;;;;3.00;1.40;;;;;;;6.78;100.00;99690.28;4987774;28;20494;-73
2023/04/12 05:23:53;;;;;;;3.22;1.67;;;;;;;6.80;100.00;99688.63;4988077;28;20038;-70
2023/04/12 05:26:18;;;;;;;4.05;1.70;;;;;;;6.82;100.00;99686.94;4988493;28;20034;-70
2023/04/12 05:28:44;;;;;;;2.03;1.30;;;;;;;6.83;100.00;99693.84;4987495;28;20038;-70
2023/04/12 05:31:09;;;;;;;3.47;1.90;;;;;;;6.85;100.00;99690.47;4978620;28;20575;-70
2023/04/12 05:33:35;;;;;;;3.45;1.60;;;;;;;6.87;100.00;99677.66;4979480;28;20041;-70
2023/04/12 05:36:01;;;;;;;4.80;1.60;;;;;;;6.87;100.00;99680.25;4986121;28;20030;-70
2023/04/12 05:38:26;;;;;;;3.72;1.60;;;;;;;6.87;100.00;99682.81;4982782;28;20109;-70
2023/04/12 05:40:51;;;;;;;2.47;1.85;;;;;;;6.90;100.00;99685.47;4986115;28;20038;-70
2023/04/12 05:43:17;;;;;;;1.58;1.25;;;;;;;6.90;100.00;99685.47;4974189;28;20042;-70
2023/04/12 05:45:42;;;;;;;3.33;1.73;;;;;;;6.92;100.00;99683.81;4962027;28;20456;-72
2023/04/12 05:48:08;;;;;;;2.78;1.58;;;;;;;6.93;100.00;99672.69;4972478;28;20089;-70
2023/04/12 05:50:33;;;;;;;2.78;1.60;;;;;;;6.94;100.00;99682.13;4968687;28;20217;-70
2023/04/12 05:53:02;;;;;;;2.45;1.33;;;;;;;6.96;100.00;99675.34;4975394;28;20109;-70
2023/04/12 05:55:28;;;;;;;2.53;1.50;;;;;;;6.96;100.00;99675.34;4975827;28;20379;-70
2023/04/12 05:57:53;;;;;;;4.03;1.90;;;;;;;6.98;100.00;99680.53;4974961;28;20038;-70
2023/04/12 06:00:20;;;;;;;3.42;1.90;;;;;;;6.99;100.00;99668.53;4976735;28;20019;-71
2023/04/12 06:02:47;;;;;;;3.45;2.22;;;;;;;6.99;100.00;99678.81;4975167;28;20113;-72
2023/04/12 06:05:13;;;;;;;3.58;2.10;;;;;;;7.00;100.00;99668.56;4975694;28;20431;-70
2023/04/12 06:07:40;;;;;;;3.25;1.98;;;;;;;7.02;100.00;99673.75;4975962;28;20031;-72
2023/04/12 06:10:07;;;;;;;4.45;2.10;;;;;;;7.04;100.00;99667.84;4978459;28;20111;-72
2023/04/12 06:12:32;;;;;;;2.15;1.77;;;;;;;7.05;100.00;99666.97;4978789;28;20495;-72
2023/04/12 06:14:57;;;;;;;4.18;2.03;;;;;;;7.06;100.00;99668.75;4977555;28;20078;-72
2023/04/12 06:17:22;;;;;;;3.20;2.00;;;;;;;7.06;100.00;99665.28;4972572;28;20065;-72
2023/04/12 06:19:48;;;;;;;2.08;1.77;;;;;;;7.07;100.00;99664.44;4978580;28;20471;-72
2023/04/12 06:22:14;;;;;;;3.58;1.50;;;;;;;7.12;100.00;99669.75;4981469;28;20061;-73
2023/04/12 06:24:39;;;;;;;3.00;1.60;;;;;;;7.09;100.00;99666.25;4985675;28;20027;-72
2023/04/12 06:27:05;;;;;;;5.03;1.67;;;;;;;7.10;100.00;99661.97;4987594;28;20534;-72
2023/04/12 06:29:30;;;;;;;2.58;1.50;;;;;;;7.13;100.00;99661.16;4990375;28;20034;-72
2023/04/12 06:31:56;;;;;;;3.40;1.40;;;;;;;7.15;100.00;99655.25;4964888;28;20027;-72
2023/04/12 06:34:21;;;;;;;3.08;1.83;;;;;;;7.17;100.00;99652.69;4967510;28;20069;-72
2023/04/12 06:36:46;;;;;;;2.60;1.85;;;;;;;7.19;100.00;99646.78;4972857;28;20542;-72
2023/04/12 06:39:12;;;;;;;6.05;2.60;;;;;;;7.21;100.00;99649.38;4966022;28;20031;-72
2023/04/12 06:41:38;;;;;;;2.88;1.70;;;;;;;7.21;100.00;99659.69;4971728;28;20028;-72
2023/04/12 06:44:03;;;;;;;4.22;2.10;;;;;;;7.24;100.00;99658.88;4966897;28;20102;-72
2023/04/12 06:46:29;;;;;;;6.13;2.08;;;;;;;7.25;100.00;99647.75;4963767;28;20062;-72
2023/04/12 06:48:54;;;;;;;6.15;2.53;;;;;;;7.27;100.00;99648.66;4970083;28;20109;-72
2023/04/12 06:51:20;;;;;;;3.28;2.08;;;;;;;7.29;100.00;99644.41;4973792;28;20027;-72
2023/04/12 06:53:45;;;;;;;4.70;2.90;;;;;;;7.28;100.00;99650.41;4965121;28;20031;-72
2023/04/12 06:56:10;;;;;;;4.55;2.08;;;;;;;7.31;100.00;99655.66;4966690;28;20031;-72
2023/04/12 06:58:35;;;;;;;3.83;2.40;;;;;;;7.32;100.00;99654.84;4961557;28;20042;-72
2023/04/12 07:01:08;;;;;;;4.55;2.78;;;;;;;7.36;100.00;99659.22;4976185;28;20057;-72
2023/04/12 07:03:34;;;;;;;4.22;3.03;;;;;;;7.38;100.00;99657.56;4976859;28;20043;-73
2023/04/12 07:06:01;;;;;;;5.95;2.97;;;;;;;7.42;100.00;99653.34;4971721;28;20019;-72
2023/04/12 07:08:31;;;;;;;5.75;3.13;;;;;;;7.41;100.00;99657.63;4966595;28;20023;-72
2023/04/12 07:10:57;;;;;;;3.88;2.75;;;;;;;7.44;100.00;99656.84;4960059;28;21190;-72
2023/04/12 07:13:22;;;;;;;3.75;3.00;;;;;;;7.47;100.00;99656.03;4968299;28;20412;-72
2023/04/12 07:15:48;;;;;;;3.40;2.95;;;;;;;7.50;100.00;99656.13;4970464;28;20066;-72
2023/04/12 07:18:13;;;;;;;3.95;3.00;;;;;;;7.52;100.00;99657.06;4974248;28;20547;-72
2023/04/12 07:20:38;;;;;;;4.95;3.33;;;;;;;7.56;100.00;99653.69;4974640;28;20050;-72
2023/04/12 07:23:04;;;;;;;4.65;3.25;;;;;;;7.61;100.00;99659.00;4976031;28;20109;-72
2023/04/12 07:25:29;;;;;;;4.15;2.80;;;;;;;7.65;100.00;99656.50;4964975;28;20047;-72
2023/04/12 07:27:54;;;;;;;3.90;2.75;;;;;;;7.66;100.00;99660.81;4982562;28;20069;-72
2023/04/12 07:30:20;;;;;;;3.55;3.10;;;;;;;7.72;100.00;99664.41;4973423;28;20031;-72
2023/04/12 07:32:45;;;;;;;4.38;3.30;;;;;;;7.73;100.00;99655.84;4988337;28;20018;-72
2023/04/12 07:35:10;;;;;;;3.22;2.90;;;;;;;7.77;100.00;99660.25;4986059;28;20554;-72
2023/04/12 07:37:36;;;;;;;4.10;3.30;;;;;;;7.81;100.00;99667.19;4986493;28;20034;-72
2023/04/12 07:40:02;;;;;;;5.85;3.20;;;;;;;7.85;100.00;99660.41;4972203;28;20105;-72
2023/04/12 07:42:27;;;;;;;3.95;3.13;;;;;;;7.88;100.00;99648.47;4974550;28;20034;-71
2023/04/12 07:44:52;;;;;;;4.97;3.40;;;;;;;7.90;100.00;99646.78;4977130;28;20030;-72
2023/04/12 07:47:17;;;;;;;3.00;2.67;;;;;;;7.91;100.00;99648.56;4980806;28;20057;-73
2023/04/12 07:49:43;;;;;;;3.67;3.13;;;;;;;7.95;100.00;99638.31;4971744;28;20090;-73
2023/04/12 07:52:08;;;;;;;6.15;3.47;;;;;;;7.99;100.00;99640.09;4979759;28;20438;-70
2023/04/12 07:54:33;;;;;;;5.13;3.13;;;;;;;8.03;100.00;99627.31;4975710;28;20031;-71
2023/04/12 07:57:02;;;;;;;6.97;3.25;;;;;;;8.06;100.00;99636.81;4979842;28;20038;-70
2023/04/12 07:59:27;;;;;;;8.30;3.80;;;;;;;8.11;100.00;99645.53;4969403;28;20030;-70
2023/04/12 08:01:53;;;;;;;9.57;4.60;;;;;;;8.16;100.00;99643.97;4983137;28;20034;-72
2023/04/12 08:04:18;;;;;;;5.97;3.65;;;;;;;8.21;100.00;99643.19;4976341;28;20018;-70
2023/04/12 08:06:43;;;;;;;6.30;3.30;;;;;;;8.24;100.00;99644.13;4979936;28;21223;-69
2023/04/12 08:09:08;;;;;;;6.53;3.30;;;;;;;8.26;100.00;99638.97;4974748;28;20027;-72
2023/04/12 08:11:34;;;;;;;5.00;3.30;;;;;;;8.27;100.00;99645.91;4977379;28;20062;-72
2023/04/12 08:14:00;;;;;;;7.55;3.60;;;;;;;8.29;100.00;99644.25;4972042;28;20054;-72
2023/04/12 08:16:26;;;;;;;6.43;2.67;;;;;;;8.31;100.00;99655.44;4965636;28;20019;-72
2023/04/12 08:18:51;;;;;;;5.70;3.10;;;;;;;8.36;100.00;99660.72;4964249;28;20444;-72
2023/04/12 08:21:16;;;;;;;8.30;3.58;;;;;;;8.33;100.00;99666.69;4965241;28;20027;-69
2023/04/12 08:23:42;;;;;;;8.38;3.55;;;;;;;8.36;100.00;99671.94;4980205;28;20493;-72
2023/04/12 08:26:08;;;;;;;7.10;3.20;;;;;;;8.37;100.00;99668.50;4972484;28;20037;-72
2023/04/12 08:28:33;;;;;;;4.78;2.60;;;;;;;8.34;100.00;99663.28;4971682;28;20379;-70
2023/04/12 08:30:59;;;;;;;5.93;2.72;;;;;;;8.32;100.00;99664.06;4978112;28;20022;-72
2023/04/12 08:33:24;;;;;;;7.68;2.85;;;;;;;8.30;100.00;99666.63;4972857;28;20118;-72
2023/04/12 08:35:51;;;;;;;6.53;2.92;;;;;;;8.28;100.00;99663.13;4980139;28;20026;-72
2023/04/12 08:38:16;;;;;;;9.57;3.45;;;;;;;8.29;100.00;99670.06;4975771;28;20061;-71
2023/04/12 08:40:42;;;;;;;5.82;3.00;;;;;;;8.27;100.00;99664.81;4982154;28;20026;-71
2023/04/12 08:43:11;;;;;;;5.55;2.63;;;;;;;8.29;100.00;99670.06;4975514;28;20026;-71
2023/04/12 08:45:36;;;;;;;6.00;2.97;;;;;;;8.29;100.00;99660.56;4980235;28;20030;-72
2023/04/12 08:48:04;;;;;;;7.88;3.45;;;;;;;8.33;100.00;99646.03;4975085;28;20018;-72
2023/04/12 08:50:30;;;;;;;7.10;3.20;;;;;;;8.38;100.00;99646.16;4987789;28;20034;-72
2023/04/12 08:52:57;;;;;;;8.23;3.47;;;;;;;8.46;100.00;99651.47;4968975;28;20023;-72
2023/04/12 08:55:23;;;;;;;9.98;3.88;;;;;;;8.52;100.00;99649.03;4977477;28;20072;-71
2023/04/12 08:57:52;;;;;;;7.50;3.45;;;;;;;8.60;100.00;99650.09;4965662;28;20440;-71
2023/04/12 09:00:19;;;;;;;5.68;3.35;;;;;;;8.75;100.00;99653.81;4977862;28;20033;-72
2023/04/12 09:02:47;;;;;;;8.55;3.50;;;;;;;8.87;100.00;99659.25;4974921;28;20439;-72
2023/04/12 09:05:13;;;;;;;6.05;3.75;;;;;;;8.96;100.00;99657.69;4977287;28;20110;-71
2023/04/12 09:07:39;;;;;;;8.93;4.95;;;;;;;9.03;100.00;99649.19;4969090;28;20031;-72
2023/04/12 09:10:05;;;;;;;8.88;4.78;;;;;;;9.20;100.00;99646.06;4982936;28;20081;-72
2023/04/12 09:12:30;;;;;;;11.70;5.22;;;;;;;9.51;100.00;99646.63;4967384;28;20031;-72
2023/04/12 09:15:17;;;;;;;9.48;4.65;;;;;;;9.94;100.00;99637.81;4975883;28;20039;-72
2023/04/12 09:17:42;;;;;;;11.25;4.93;;;;;;;10.29;100.00;99627.09;4967113;28;20471;-72
2023/04/12 09:20:16;;;;;;;10.55;4.47;;;;;;;10.64;100.00;99622.41;4969856;28;20034;-72
2023/04/12 09:22:44;;;;;;;9.45;4.57;;;;;;;10.79;100.00;99632.09;4972789;28;20049;-72
2023/04/12 09:25:10;;;;;;;10.02;4.15;;;;;;;10.87;100.00;99630.44;4986080;28;20061;-72
2023/04/12 09:27:53;;;;;;;14.35;5.57;;;;;;;10.86;100.00;99627.84;4984371;28;20046;-72
2023/04/12 09:30:19;;;;;;;10.88;4.72;;;;;;;10.80;100.00;99626.03;4973184;28;20387;-70
2023/04/12 09:32:45;;;;;;;10.52;5.25;;;;;;;10.72;100.00;99633.72;4967940;28;20270;-70
2023/04/12 09:35:10;;;;;;;9.85;4.60;;;;;;;10.71;100.00;99634.56;4969699;28;20030;-73
2023/04/12 09:37:36;;;;;;;13.02;5.97;;;;;;;10.79;100.00;99627.75;4967105;28;20457;-70
2023/04/12 09:40:04;;;;;;;12.18;5.63;;;;;;;10.97;100.00;99630.56;4966729;28;20491;-69
2023/04/12 09:42:29;;;;;;;12.02;5.65;;;;;;;10.84;100.00;99626.94;4975200;28;20089;-72
2023/04/12 09:44:56;;;;;;;12.85;5.45;;;;;;;10.88;100.00;99626.13;4976663;28;20023;-71
2023/04/12 09:47:35;;;;;;;10.48;5.18;;;;;;;10.86;100.00;99627.84;4965171;28;20065;-71
2023/04/12 09:50:03;;;;;;;11.82;4.97;;;;;;;10.79;100.00;99627.75;4978211;28;20037;-72
2023/04/12 09:52:36;;;;;;;14.45;5.55;;;;;;;10.80;100.00;99619.16;4970237;28;20484;-72
2023/04/12 09:55:02;;;;;;;15.43;6.43;;;;;;;10.83;100.00;99612.25;4963847;28;20033;-72
2023/04/12 09:57:29;;;;;;;15.20;5.95;;;;;;;10.86;100.00;99612.28;4955355;28;20361;-72
2023/04/12 09:59:59;;;;;;;14.45;5.57;;;;;;;10.85;100.00;99601.03;4960127;28;20480;-72
2023/04/12 10:02:26;;;;;;;13.52;5.43;;;;;;;10.91;100.00;99600.25;4958681;28;20392;-72
2023/04/12 10:04:53;;;;;;;13.13;5.38;;;;;;;10.95;100.00;99621.88;4965718;28;20515;-72
2023/04/12 10:07:18;;;;;;;14.38;4.57;;;;;;;11.06;100.00;99609.94;4983662;28;20038;-72
2023/04/12 10:09:45;;;;;;;13.70;4.82;;;;;;;11.10;100.00;99593.53;4984357;28;20081;-71
2023/04/12 10:12:10;;;;;;;12.65;4.30;;;;;;;11.07;100.00;99603.88;4962451;28;20106;-72
2023/04/12 10:14:36;;;;;;;9.93;4.10;;;;;;;11.08;100.00;99612.53;4975450;28;20054;-71
2023/04/12 10:17:03;;;;;;;15.55;4.28;;;;;;;11.02;100.00;99619.38;4968854;28;20027;-71
2023/04/12 10:19:30;;;;;;;16.25;4.18;;;;;;;10.96;100.00;99628.78;4975132;28;20026;-72
2023/04/12 10:21:56;;;;;;;12.13;3.83;;;;;;;10.91;100.00;99631.34;4978996;28;20030;-71
2023/04/12 10:24:24;;;;;;;9.10;4.10;;;;;;;10.79;100.00;99625.16;4978307;28;20026;-72
2023/04/12 10:26:50;;;;;;;13.68;4.68;;;;;;;10.68;100.00;99624.19;4956613;28;20035;-72
2023/04/12 10:29:23;;;;;;;16.60;4.25;;;;;;;10.61;100.00;99618.06;4977502;28;20049;-72
2023/04/12 10:31:49;;;;;;;14.13;3.70;;;;;;;10.52;100.00;99618.78;4971264;28;20041;-72
2023/04/12 10:34:14;;;;;;;13.15;3.65;;;;;;;10.45;100.00;99629.91;4984589;28;20018;-72
2023/04/12 10:36:59;;;;;;;11.10;3.50;;;;;;;10.42;100.00;99632.44;4979311;28;20077;-72
2023/04/12 10:39:37;;;;;;;9.90;3.55;;;;;;;10.36;100.00;99630.63;4965342;28;20030;-72
2023/04/12 10:42:19;;;;;;;15.20;3.35;;;;;;;10.39;100.00;99625.53;4978803;28;20081;-72
2023/04/12 10:44:46;;;;;;;18.60;4.05;;;;;;;10.40;100.00;99623.78;4972235;28;20086;-72
2023/04/12 10:47:11;;;;;;;12.68;3.80;;;;;;;10.40;100.00;99626.38;4983644;28;20038;-72
2023/04/12 10:49:38;;;;;;;14.85;4.55;;;;;;;10.38;100.00;99622.91;4978601;28;20404;-72
2023/04/12 10:52:13;;;;;;;10.00;3.00;;;;;;;10.31;100.00;99640.06;4981118;28;20052;-72
2023/04/12 10:54:38;;;;;;;10.50;2.88;;;;;;;10.28;100.00;99645.22;4968138;28;20070;-72
2023/04/12 10:57:06;;;;;;;17.35;3.58;;;;;;;10.16;100.00;99657.16;4962229;28;20432;-71
2023/04/12 10:59:58;;;;;;;15.55;3.88;;;;;;;10.04;100.00;99646.59;4971613;28;20821;-72
2023/04/12 11:02:23;;;;;;;8.93;2.92;;;;;;;9.91;100.00;99655.91;4988590;28;20023;-72
2023/04/12 11:05:07;;;;;;;13.27;3.47;;;;;;;9.67;100.00;99654.63;4975968;28;20490;-71
2023/04/12 11:07:40;;;;;;;14.25;3.72;;;;;;;9.37;100.00;99652.41;4984701;28;20037;-72
2023/04/12 11:10:17;;;;;;;14.43;4.72;;;;;;;9.27;100.00;99655.69;4965895;28;20022;-72
2023/04/12 11:12:51;;;;;;;15.55;3.22;;;;;;;9.22;100.00;99647.84;4985259;28;20048;-72
2023/04/12 11:15:17;;;;;;;11.30;3.60;;;;;;;9.12;100.00;99654.53;4967389;28;20046;-72
2023/04/12 11:17:52;;;;;;;15.57;4.50;;;;;;;9.08;100.00;99657.06;4956612;28;20039;-72
2023/04/12 11:20:19;;;;;;;15.10;4.50;;;;;;;9.00;100.00;99665.53;4955905;28;20377;-72
2023/04/12 11:22:44;;;;;;;17.30;5.05;;;;;;;8.92;100.00;99664.53;4974673;28;20031;-71
2023/04/12 11:25:16;;;;;;;15.68;4.43;;;;;;;8.95;100.00;99667.16;4968488;28;20545;-72
2023/04/12 11:27:48;;;;;;;18.25;6.30;;;;;;;8.96;100.00;99662.88;4966166;28;20066;-72
2023/04/12 11:30:13;;;;;;;15.35;5.05;;;;;;;9.00;100.00;99662.06;4967408;28;20031;-71